Time;durP1;ratioP1;P1;durP2;ratioP2;P2;SDS_P1;SDS_P2;PMS_P1;PMS_P2;Temp;Humidity;BMP_temperature;BMP_pressure;BME280_temperature;BME280_humidity;BME280_pressure;Samples;Min_cycle;Max_cycle;Signal;HPM_P1;HPM_P2
2023/12/17 00:02:19;;;;;;;34.58;20.38;;;;;;;7.59;82.33;102866.56;5124021;28;20047;-70
2023/12/17 00:04:46;;;;;;;42.05;20.73;;;;;;;7.53;82.71;102873.09;5123897;28;20048;-69
2023/12/17 00:07:12;;;;;;;40.10;20.00;;;;;;;7.54;82.96;102874.84;5121425;28;20119;-71
2023/12/17 00:09:40;;;;;;;36.85;19.92;;;;;;;7.57;82.78;102885.53;5122816;28;20423;-70
2023/12/17 00:12:07;;;;;;;37.13;19.92;;;;;;;7.65;82.34;102892.44;5122554;28;20048;-71
2023/12/17 00:14:33;;;;;;;32.92;19.55;;;;;;;7.64;82.27;102896.97;5122794;28;20126;-71
2023/12/17 00:17:00;;;;;;;30.92;19.17;;;;;;;7.58;83.02;102886.44;5123420;28;20047;-70
2023/12/17 00:19:26;;;;;;;32.80;19.02;;;;;;;7.54;82.82;102895.56;5123562;28;20065;-72
2023/12/17 00:21:54;;;;;;;33.63;19.15;;;;;;;7.67;82.44;102886.03;5122663;28;20093;-70
2023/12/17 00:24:20;;;;;;;35.33;19.10;;;;;;;7.61;82.61;102885.41;5122330;28;20061;-71
2023/12/17 00:26:47;;;;;;;36.53;19.70;;;;;;;7.61;82.81;102896.22;5121593;28;20051;-70
2023/12/17 00:29:13;;;;;;;39.03;19.42;;;;;;;7.71;82.13;102897.59;5121470;28;20048;-70
2023/12/17 00:31:40;;;;;;;37.72;18.63;;;;;;;7.73;82.01;102884.91;5122785;28;20069;-70
2023/12/17 00:34:06;;;;;;;29.05;18.15;;;;;;;7.68;82.33;102884.22;5122139;28;20047;-70
2023/12/17 00:36:33;;;;;;;33.75;18.98;;;;;;;7.62;82.68;102885.34;5122880;28;20056;-71
2023/12/17 00:39:00;;;;;;;35.50;19.35;;;;;;;7.54;82.96;102877.53;5122019;28;20437;-70
2023/12/17 00:41:27;;;;;;;34.03;19.33;;;;;;;7.52;82.78;102871.34;5122267;28;20103;-71
2023/12/17 00:43:54;;;;;;;38.83;19.00;;;;;;;7.63;82.79;102862.78;5122561;28;20044;-71
2023/12/17 00:46:20;;;;;;;34.53;19.83;;;;;;;7.54;82.93;102847.84;5121761;28;20040;-71
2023/12/17 00:48:49;;;;;;;36.35;19.17;;;;;;;7.58;82.82;102848.63;5121467;28;20047;-70
2023/12/17 00:51:16;;;;;;;30.17;18.05;;;;;;;7.67;82.54;102841.94;5122400;28;20047;-71
2023/12/17 00:53:42;;;;;;;31.42;19.40;;;;;;;7.67;82.79;102844.66;5116549;28;20052;-70
2023/12/17 00:56:09;;;;;;;36.40;19.38;;;;;;;7.66;82.63;102848.31;5123172;28;20054;-71
2023/12/17 00:58:36;;;;;;;30.02;18.58;;;;;;;7.73;82.59;102857.88;5122822;28;20408;-70
2023/12/17 01:01:03;;;;;;;34.38;20.02;;;;;;;7.61;83.12;102869.19;5123292;28;20074;-71
2023/12/17 01:03:31;;;;;;;36.58;19.48;;;;;;;7.67;82.62;102871.66;5123638;28;20116;-71
2023/12/17 01:05:57;;;;;;;39.03;19.35;;;;;;;7.73;82.57;102890.28;5123536;28;20048;-71
2023/12/17 01:08:24;;;;;;;33.33;18.52;;;;;;;7.62;83.26;102884.47;5124053;28;20055;-71
2023/12/17 01:10:51;;;;;;;32.00;18.10;;;;;;;7.74;82.55;102876.72;5124079;28;20082;-71
2023/12/17 01:13:17;;;;;;;30.40;17.77;;;;;;;7.75;82.63;102877.63;5122497;28;20052;-71
2023/12/17 01:15:44;;;;;;;28.13;17.00;;;;;;;7.79;82.04;102874.72;5122931;28;20051;-71
2023/12/17 01:18:11;;;;;;;38.35;18.98;;;;;;;7.77;82.22;102873.03;5103527;28;20047;-70
2023/12/17 01:20:38;;;;;;;29.15;18.15;;;;;;;7.80;82.44;102881.88;5121657;28;20039;-71
2023/12/17 01:23:05;;;;;;;32.42;18.48;;;;;;;7.77;82.59;102886.53;5122979;28;20073;-71
2023/12/17 01:25:31;;;;;;;28.17;18.05;;;;;;;7.76;82.60;102892.88;5122850;28;20069;-71
2023/12/17 01:27:58;;;;;;;37.08;19.05;;;;;;;7.66;82.76;102889.69;5123866;28;20039;-70
2023/12/17 01:30:24;;;;;;;31.88;18.40;;;;;;;7.74;82.69;102898.34;5123128;28;20054;-71
2023/12/17 01:32:51;;;;;;;31.05;18.80;;;;;;;7.66;83.07;102894.22;5121594;28;20047;-71
2023/12/17 01:35:18;;;;;;;29.23;17.33;;;;;;;7.70;83.04;102895.84;5121613;28;20055;-71
2023/12/17 01:37:44;;;;;;;31.38;19.10;;;;;;;7.61;83.15;102894.38;5123150;28;20047;-70
2023/12/17 01:40:11;;;;;;;32.58;18.77;;;;;;;7.62;83.15;102888.03;5123062;28;20104;-70
2023/12/17 01:42:38;;;;;;;28.92;18.58;;;;;;;7.67;83.29;102890.56;5123074;28;20048;-71
2023/12/17 01:45:06;;;;;;;30.25;18.92;;;;;;;7.69;82.84;102884.16;5123347;28;20047;-70
2023/12/17 01:47:32;;;;;;;26.67;18.33;;;;;;;7.71;82.83;102893.06;5122531;28;20055;-70
2023/12/17 01:49:59;;;;;;;31.65;19.23;;;;;;;7.74;82.85;102892.06;5122962;28;20063;-71
2023/12/17 01:52:26;;;;;;;31.90;18.77;;;;;;;7.71;83.05;102905.69;5123234;28;20100;-71
2023/12/17 01:54:52;;;;;;;33.90;18.70;;;;;;;7.76;82.76;102903.69;5122907;28;20043;-71
2023/12/17 01:57:19;;;;;;;33.90;19.70;;;;;;;7.77;83.10;102897.34;5122554;28;20065;-71
2023/12/17 01:59:46;;;;;;;30.35;18.73;;;;;;;7.89;82.57;102901.34;5122782;28;20077;-71
2023/12/17 02:02:13;;;;;;;31.88;19.00;;;;;;;7.87;82.43;102897.84;5121912;28;20052;-71
2023/12/17 02:04:40;;;;;;;33.90;19.15;;;;;;;7.80;82.73;102897.22;5122562;28;20055;-71
2023/12/17 02:07:22;;;;;;;29.30;18.15;;;;;;;7.77;82.80;102903.63;5122226;28;20044;-70
2023/12/17 02:09:48;;;;;;;30.48;18.48;;;;;;;7.72;83.29;102900.22;5121378;28;20108;-71
2023/12/17 02:12:29;;;;;;;31.38;19.25;;;;;;;7.85;82.65;102911.41;5120309;28;20392;-70
2023/12/17 02:14:56;;;;;;;32.38;18.60;;;;;;;7.75;83.03;102902.81;5125951;28;20055;-71
2023/12/17 02:17:30;;;;;;;28.52;19.25;;;;;;;7.84;82.87;102904.22;5124813;28;20044;-70
2023/12/17 02:19:57;;;;;;;34.28;19.98;;;;;;;7.85;82.52;102895.22;5125873;28;20482;-71
2023/12/17 02:22:25;;;;;;;29.75;18.98;;;;;;;7.79;83.05;102890.94;5125384;28;20044;-71
2023/12/17 02:24:53;;;;;;;32.92;20.13;;;;;;;7.70;83.44;102896.72;5125481;28;20101;-71
2023/12/17 02:27:24;;;;;;;32.38;19.67;;;;;;;7.77;83.05;102897.34;5125163;28;20047;-70
2023/12/17 02:29:51;;;;;;;;;;;;;;;7.72;83.81;102900.22;5127039;28;20044;-71
2023/12/17 02:32:23;;;;;;;36.90;19.23;;;;;;;7.85;82.98;102908.72;5124908;28;20002;-71
2023/12/17 02:34:51;;;;;;;33.47;19.08;;;;;;;7.70;83.54;102903.94;5127380;28;20514;-70
2023/12/17 02:37:19;;;;;;;31.55;19.83;;;;;;;7.71;83.78;102901.16;5125708;28;20048;-71
2023/12/17 02:39:45;;;;;;;29.13;18.23;;;;;;;7.78;83.38;102899.09;5124957;28;20040;-71
2023/12/17 02:42:12;;;;;;;27.45;18.67;;;;;;;7.79;83.32;102898.16;5126534;28;20518;-70
2023/12/17 02:44:39;;;;;;;29.52;17.90;;;;;;;7.83;83.28;102907.88;5125502;28;20126;-71
2023/12/17 02:47:05;;;;;;;34.08;19.52;;;;;;;7.84;83.13;102909.63;5125795;28;20054;-71
2023/12/17 02:49:33;;;;;;;28.58;18.60;;;;;;;7.77;83.57;102900.94;5127281;28;20069;-70
2023/12/17 02:52:00;;;;;;;36.90;19.65;;;;;;;7.80;83.62;102897.22;5124750;28;20059;-71
2023/12/17 02:54:27;;;;;;;30.70;19.77;;;;;;;7.84;83.26;102893.41;5125513;28;20073;-70
2023/12/17 02:56:55;;;;;;;30.50;18.50;;;;;;;7.80;83.23;102886.41;5125250;28;20050;-70
2023/12/17 02:59:22;;;;;;;31.63;18.95;;;;;;;7.84;83.31;102883.53;5124455;28;20055;-70
2023/12/17 03:01:49;;;;;;;35.05;20.08;;;;;;;7.91;82.76;102888.66;5124583;28;20047;-71
2023/12/17 03:04:16;;;;;;;32.00;19.23;;;;;;;7.76;83.62;102890.19;5124315;28;20078;-70
2023/12/17 03:06:43;;;;;;;29.52;19.05;;;;;;;7.62;84.42;102890.75;5124827;28;20043;-71
2023/12/17 03:09:13;;;;;;;34.10;19.08;;;;;;;7.73;84.12;102898.41;5125288;28;20051;-69
2023/12/17 03:11:40;;;;;;;33.10;18.38;;;;;;;7.82;83.70;102889.91;5124745;27;20044;-69
2023/12/17 03:14:07;;;;;;;29.38;18.63;;;;;;;7.72;84.23;102888.53;5124740;28;20069;-70
2023/12/17 03:16:33;;;;;;;35.90;19.83;;;;;;;7.82;83.63;102879.97;5125915;28;20072;-70
2023/12/17 03:19:00;;;;;;;34.25;19.80;;;;;;;7.83;83.37;102886.25;5126284;28;20055;-70
2023/12/17 03:21:27;;;;;;;30.67;19.45;;;;;;;7.83;83.43;102884.44;5124241;28;20048;-70
2023/12/17 03:23:54;;;;;;;32.83;19.48;;;;;;;7.84;83.67;102877.22;5124636;28;20039;-70
2023/12/17 03:26:21;;;;;;;31.65;19.35;;;;;;;7.90;83.74;102887.78;5124278;28;20051;-70
2023/12/17 03:28:48;;;;;;;29.65;19.02;;;;;;;7.85;83.79;102879.88;5125265;28;20047;-70
2023/12/17 03:31:15;;;;;;;32.28;19.55;;;;;;;7.91;83.54;102876.00;5124813;28;20064;-70
2023/12/17 03:33:43;;;;;;;32.83;19.85;;;;;;;7.78;84.09;102877.50;5125705;28;20036;-70
2023/12/17 03:36:16;;;;;;;28.38;18.10;;;;;;;7.83;83.92;102875.47;5124296;28;20048;-69
2023/12/17 03:38:45;;;;;;;31.00;20.17;;;;;;;7.87;83.93;102893.31;5124701;28;20043;-69
2023/12/17 03:41:25;;;;;;;30.77;18.67;;;;;;;7.89;83.95;102880.63;5125450;28;20047;-70
2023/12/17 03:43:53;;;;;;;28.33;19.23;;;;;;;7.92;83.64;102891.28;5125238;28;20122;-70
2023/12/17 03:46:22;;;;;;;30.40;19.50;;;;;;;7.80;84.25;102881.88;5125236;28;20062;-70
2023/12/17 03:48:49;;;;;;;31.73;19.60;;;;;;;7.90;83.87;102882.38;5124630;28;20612;-70
2023/12/17 03:51:16;;;;;;;31.48;20.08;;;;;;;7.88;84.16;102873.44;5125167;28;20478;-70
2023/12/17 03:53:43;;;;;;;32.60;19.60;;;;;;;7.99;83.39;102884.69;5118633;28;20103;-70
2023/12/17 03:56:11;;;;;;;35.40;20.13;;;;;;;7.93;83.88;102887.63;5124095;28;20077;-70
2023/12/17 03:58:40;;;;;;;32.35;19.02;;;;;;;7.75;84.53;102889.31;5123633;28;20039;-70
2023/12/17 04:01:07;;;;;;;30.42;18.83;;;;;;;7.86;84.32;102886.16;5123306;28;20164;-69
2023/12/17 04:03:36;;;;;;;33.45;19.83;;;;;;;7.87;84.42;102893.31;5125361;28;20040;-70
2023/12/17 04:06:05;;;;;;;29.33;18.67;;;;;;;7.90;84.09;102887.78;5124157;28;20107;-70
2023/12/17 04:08:31;;;;;;;30.60;19.15;;;;;;;7.78;84.67;102891.88;5125338;28;20464;-70
2023/12/17 04:10:58;;;;;;;25.65;18.58;;;;;;;7.78;84.82;102883.78;5123856;28;20046;-70
2023/12/17 04:13:25;;;;;;;30.25;18.75;;;;;;;7.90;84.29;102886.91;5123755;28;20633;-70
2023/12/17 04:15:51;;;;;;;32.10;19.55;;;;;;;7.90;84.41;102876.97;5124084;28;20111;-69
2023/12/17 04:18:18;;;;;;;34.20;18.88;;;;;;;7.88;84.75;102878.84;5123870;28;20048;-70
2023/12/17 04:20:45;;;;;;;25.83;18.35;;;;;;;7.94;83.92;102872.31;5123907;28;20040;-70
2023/12/17 04:23:11;;;;;;;31.63;19.73;;;;;;;7.86;84.61;102869.94;5124910;28;20047;-69
2023/12/17 04:25:40;;;;;;;29.92;19.02;;;;;;;7.84;84.73;102874.50;5124159;28;20043;-70
2023/12/17 04:28:07;;;;;;;30.08;19.63;;;;;;;7.85;84.80;102868.19;5123895;28;20051;-70
2023/12/17 04:30:33;;;;;;;26.80;18.60;;;;;;;7.79;84.71;102873.84;5124773;28;20039;-70
2023/12/17 04:33:00;;;;;;;26.67;18.13;;;;;;;7.72;85.13;102875.03;5122806;28;20043;-70
2023/12/17 04:35:27;;;;;;;31.95;18.73;;;;;;;7.77;85.22;102870.34;5123552;28;20050;-70
2023/12/17 04:37:54;;;;;;;29.45;19.10;;;;;;;7.76;85.04;102868.56;5123632;28;20047;-69
2023/12/17 04:40:20;;;;;;;28.63;19.45;;;;;;;7.84;85.06;102871.81;5122913;28;20052;-70
2023/12/17 04:42:47;;;;;;;33.83;19.77;;;;;;;7.81;84.75;102866.53;5105341;28;20043;-70
2023/12/17 04:45:14;;;;;;;36.90;19.65;;;;;;;7.79;85.07;102865.72;5123295;28;20056;-70
2023/12/17 04:47:40;;;;;;;29.63;18.95;;;;;;;7.77;85.20;102864.94;5122336;28;20499;-70
2023/12/17 04:50:08;;;;;;;27.85;18.65;;;;;;;7.88;84.65;102867.16;5122511;28;20058;-71
2023/12/17 04:52:34;;;;;;;35.05;19.63;;;;;;;7.95;84.39;102858.75;5122389;28;20048;-71
2023/12/17 04:55:03;;;;;;;28.48;18.20;;;;;;;7.88;84.52;102862.66;5123867;28;20040;-70
2023/12/17 04:57:31;;;;;;;30.08;17.50;;;;;;;7.69;85.58;102864.38;5123820;28;20058;-70
2023/12/17 05:00:00;;;;;;;29.35;17.73;;;;;;;7.77;85.03;102864.94;5124226;28;20044;-70
2023/12/17 05:02:28;;;;;;;31.92;16.90;;;;;;;7.72;85.25;102857.00;5124741;28;20044;-70
2023/12/17 05:04:54;;;;;;;26.17;17.00;;;;;;;7.82;84.61;102857.50;5123695;28;20039;-70
2023/12/17 05:07:21;;;;;;;24.98;17.73;;;;;;;7.78;84.60;102858.56;5122939;28;20055;-70
2023/12/17 05:09:48;;;;;;;28.30;17.42;;;;;;;7.74;84.67;102860.50;5124381;28;20411;-70
2023/12/17 05:12:15;;;;;;;31.92;17.83;;;;;;;7.85;84.09;102852.84;5122037;28;20062;-71
2023/12/17 05:14:42;;;;;;;30.48;17.77;;;;;;;7.81;84.47;102861.13;5122626;28;20074;-70
2023/12/17 05:17:10;;;;;;;23.35;16.63;;;;;;;7.80;84.59;102857.56;5121777;28;20444;-70
2023/12/17 05:19:36;;;;;;;27.65;17.35;;;;;;;7.83;84.15;102859.25;5104406;28;20097;-70
2023/12/17 05:22:04;;;;;;;27.13;16.30;;;;;;;7.69;84.63;102850.84;5123947;28;20048;-70
2023/12/17 05:24:30;;;;;;;27.52;17.20;;;;;;;7.71;84.60;102859.78;5122065;28;20043;-69
2023/12/17 05:26:57;;;;;;;31.17;17.70;;;;;;;7.73;84.46;102849.78;5122758;28;20062;-70
2023/12/17 05:29:23;;;;;;;25.95;17.23;;;;;;;7.65;85.08;102854.63;5123461;28;20051;-70
2023/12/17 05:31:51;;;;;;;27.08;16.63;;;;;;;7.73;84.72;102863.28;5123422;28;20052;-69
2023/12/17 05:34:17;;;;;;;28.98;17.23;;;;;;;7.70;84.88;102863.41;5122680;28;20138;-70
2023/12/17 05:36:44;;;;;;;27.40;16.30;;;;;;;7.73;84.86;102860.56;5123146;28;20044;-70
2023/12/17 05:39:11;;;;;;;23.67;16.67;;;;;;;7.75;84.56;102856.91;5123171;28;20120;-70
2023/12/17 05:41:37;;;;;;;26.20;16.88;;;;;;;7.78;84.30;102853.19;5122438;28;20069;-70
2023/12/17 05:44:04;;;;;;;32.53;17.83;;;;;;;7.72;84.59;102853.44;5122649;28;20047;-70
2023/12/17 05:46:30;;;;;;;24.50;16.30;;;;;;;7.72;84.81;102856.13;5121555;28;20065;-70
2023/12/17 05:48:57;;;;;;;27.77;17.55;;;;;;;7.78;84.34;102861.28;5128452;27;20048;-69
2023/12/17 05:51:24;;;;;;;30.02;16.77;;;;;;;7.81;84.17;102866.53;5110532;27;20132;-71
2023/12/17 05:53:50;;;;;;;27.20;16.83;;;;;;;7.68;84.20;102863.50;5120951;27;20044;-69
2023/12/17 05:56:17;;;;;;;26.00;17.02;;;;;;;7.78;84.25;102861.28;5128720;27;20096;-71
2023/12/17 05:58:44;;;;;;;27.60;16.10;;;;;;;7.74;84.25;102871.31;5110702;27;20093;-71
2023/12/17 06:01:11;;;;;;;24.85;16.17;;;;;;;7.68;84.88;102862.63;5128589;27;20059;-71
2023/12/17 06:03:38;;;;;;;24.85;15.60;;;;;;;7.82;83.96;102858.38;5129205;27;20050;-70
2023/12/17 06:06:06;;;;;;;26.27;16.45;;;;;;;7.74;84.33;102865.03;5130903;27;20051;-71
2023/12/17 06:08:32;;;;;;;25.50;16.25;;;;;;;7.76;84.04;102858.66;5111156;28;20043;-71
2023/12/17 06:10:59;;;;;;;25.77;16.40;;;;;;;7.76;84.05;102864.06;5128939;27;20047;-71
2023/12/17 06:13:26;;;;;;;25.65;15.95;;;;;;;7.71;84.52;102860.66;5128588;27;20108;-71
2023/12/17 06:15:52;;;;;;;25.55;17.27;;;;;;;7.70;84.39;102864.28;5128919;27;20055;-71
2023/12/17 06:18:19;;;;;;;25.63;15.60;;;;;;;7.85;83.59;102858.25;5129447;27;20039;-71
2023/12/17 06:20:46;;;;;;;28.25;16.58;;;;;;;7.73;84.04;102863.28;5129826;27;20761;-71
2023/12/17 06:23:14;;;;;;;25.10;16.23;;;;;;;7.71;84.71;102857.06;5129050;27;20135;-70
2023/12/17 06:25:40;;;;;;;24.13;15.40;;;;;;;7.73;84.12;102850.66;5128208;27;20048;-70
2023/12/17 06:28:07;;;;;;;24.85;15.90;;;;;;;7.72;84.09;102846.19;5129142;27;20069;-70
2023/12/17 06:30:33;;;;;;;25.60;15.50;;;;;;;7.75;83.71;102850.63;5129370;27;20027;-71
2023/12/17 06:33:00;;;;;;;24.27;15.35;;;;;;;7.76;83.56;102847.84;5110183;27;20050;-71
2023/12/17 06:35:27;;;;;;;24.85;15.15;;;;;;;7.64;84.34;102852.84;5128413;27;20497;-70
2023/12/17 06:37:53;;;;;;;21.63;15.52;;;;;;;7.76;83.85;102863.19;5128222;27;20040;-70
2023/12/17 06:40:20;;;;;;;21.08;14.48;;;;;;;7.76;83.24;102865.88;5128254;27;20379;-71
2023/12/17 06:42:46;;;;;;;22.98;15.38;;;;;;;7.85;83.28;102868.19;5128531;27;20051;-71
2023/12/17 06:45:14;;;;;;;20.23;14.13;;;;;;;7.75;83.75;102866.81;5129371;27;20124;-70
2023/12/17 06:47:40;;;;;;;21.95;14.88;;;;;;;7.89;83.02;102877.03;5129040;27;20047;-70
2023/12/17 06:50:09;;;;;;;22.10;14.10;;;;;;;7.73;83.59;102879.50;5128467;27;20104;-72
2023/12/17 06:52:36;;;;;;;21.98;14.45;;;;;;;7.73;83.73;102885.78;5128543;27;20512;-71
2023/12/17 06:55:03;;;;;;;25.50;13.93;;;;;;;7.74;83.21;102890.22;5129202;27;20059;-71
2023/12/17 06:57:30;;;;;;;23.63;13.75;;;;;;;7.69;83.71;102888.69;5127394;27;20040;-70
2023/12/17 06:59:57;;;;;;;23.60;14.20;;;;;;;7.71;83.81;102894.88;5124887;28;20704;-70
2023/12/17 07:02:23;;;;;;;22.17;14.18;;;;;;;7.74;83.27;102892.06;5125523;28;20069;-71
2023/12/17 07:04:50;;;;;;;19.35;13.00;;;;;;;7.78;82.90;102893.69;5125463;28;20035;-71
2023/12/17 07:07:16;;;;;;;22.02;13.85;;;;;;;7.73;83.79;102890.28;5124069;28;20131;-71
2023/12/17 07:09:43;;;;;;;21.73;13.05;;;;;;;7.70;83.33;102890.44;5124632;28;20044;-71
2023/12/17 07:12:10;;;;;;;19.27;13.00;;;;;;;7.70;83.28;102895.84;5125624;28;20039;-71
2023/12/17 07:14:37;;;;;;;21.25;13.20;;;;;;;7.76;83.13;102893.78;5125490;28;20051;-70
2023/12/17 07:17:04;;;;;;;20.70;13.15;;;;;;;7.71;83.31;102887.66;5107420;28;20556;-70
2023/12/17 07:19:31;;;;;;;20.48;13.43;;;;;;;7.83;83.15;102880.84;5123362;28;20043;-70
2023/12/17 07:21:58;;;;;;;16.85;12.60;;;;;;;7.90;82.42;102871.56;5124830;28;20096;-70
2023/12/17 07:24:25;;;;;;;20.67;12.38;;;;;;;7.92;82.37;102875.06;5125757;28;20055;-70
2023/12/17 07:26:52;;;;;;;17.27;12.52;;;;;;;7.74;82.72;102876.72;5126731;28;20051;-70
2023/12/17 07:29:19;;;;;;;20.15;12.52;;;;;;;7.79;82.83;102879.25;5127307;28;20043;-70
2023/12/17 07:31:46;;;;;;;19.50;12.88;;;;;;;7.76;82.79;102863.19;5125731;28;20154;-70
2023/12/17 07:34:13;;;;;;;22.17;11.73;;;;;;;7.71;82.99;102867.88;5126124;28;20051;-71
2023/12/17 07:36:44;;;;;;;;;;;;;;;7.71;82.99;102863.34;5127322;28;20066;-70
2023/12/17 07:39:10;;;;;;;18.08;11.90;;;;;;;7.87;82.24;102871.69;5126997;28;19920;-70
2023/12/17 07:41:37;;;;;;;17.02;11.23;;;;;;;7.90;82.22;102870.69;5126526;28;20044;-70
2023/12/17 07:44:04;;;;;;;14.68;10.88;;;;;;;7.91;82.28;102881.41;5109326;28;20415;-70
2023/12/17 07:46:30;;;;;;;18.73;11.85;;;;;;;7.92;81.82;102879.59;5106146;28;20048;-70
2023/12/17 07:48:57;;;;;;;17.85;11.40;;;;;;;7.84;82.50;102869.09;5106756;28;20052;-70
2023/12/17 07:51:26;;;;;;;17.33;11.75;;;;;;;7.94;81.50;102873.19;5107283;28;20074;-70
2023/12/17 07:53:53;;;;;;;18.17;10.93;;;;;;;7.88;81.92;102877.97;5116199;28;20052;-71
2023/12/17 07:56:20;;;;;;;15.30;10.55;;;;;;;7.88;81.76;102888.78;5124635;28;20044;-70
2023/12/17 07:58:46;;;;;;;14.27;10.25;;;;;;;7.86;81.96;102886.16;5125233;28;20532;-70
2023/12/17 08:01:13;;;;;;;14.25;10.48;;;;;;;7.81;81.71;102893.56;5126171;28;20058;-70
2023/12/17 08:03:41;;;;;;;20.85;10.73;;;;;;;7.93;81.37;102893.03;5126523;28;20044;-70
2023/12/17 08:06:08;;;;;;;18.65;9.75;;;;;;;7.95;81.17;102899.28;5126832;28;20494;-70
2023/12/17 08:08:36;;;;;;;14.75;10.13;;;;;;;7.70;82.27;102894.00;5126436;28;20103;-70
2023/12/17 08:11:02;;;;;;;14.75;10.35;;;;;;;7.91;81.45;102889.53;5126548;28;20043;-70
2023/12/17 08:13:29;;;;;;;17.77;10.23;;;;;;;7.95;80.95;102887.59;5126327;28;20040;-70
2023/12/17 08:15:55;;;;;;;16.13;10.10;;;;;;;7.94;81.25;102883.13;5125799;28;20044;-70
2023/12/17 08:18:22;;;;;;;13.57;9.93;;;;;;;7.88;81.27;102877.97;5124099;28;20126;-70
2023/12/17 08:20:49;;;;;;;14.50;9.77;;;;;;;8.02;80.55;102880.94;5123667;28;20066;-70
2023/12/17 08:23:16;;;;;;;16.83;10.23;;;;;;;8.02;80.62;102879.13;5124381;28;20581;-70
2023/12/17 08:25:43;;;;;;;16.50;10.30;;;;;;;7.97;80.75;102883.00;5125427;28;20108;-70
2023/12/17 08:28:09;;;;;;;15.18;10.43;;;;;;;7.99;80.59;102886.50;5125613;28;20077;-69
2023/12/17 08:30:39;;;;;;;14.57;9.75;;;;;;;7.95;80.62;102891.16;5107833;28;20749;-69
2023/12/17 08:33:05;;;;;;;13.20;9.52;;;;;;;8.08;79.99;102886.09;5107653;28;20065;-69
2023/12/17 08:35:32;;;;;;;13.00;9.13;;;;;;;8.10;79.75;102892.31;5125791;28;20515;-69
2023/12/17 08:38:03;;;;;;;12.82;9.73;;;;;;;8.09;79.70;102877.06;5123884;28;20077;-69
2023/12/17 08:40:32;;;;;;;13.40;9.37;;;;;;;7.97;80.34;102883.00;5124676;28;20065;-69
2023/12/17 08:42:58;;;;;;;13.32;9.10;;;;;;;8.09;79.62;102883.34;5125407;28;20257;-71
2023/12/17 08:45:25;;;;;;;15.35;9.68;;;;;;;8.10;79.05;102895.91;5125753;28;20065;-71
2023/12/17 08:47:52;;;;;;;15.23;8.93;;;;;;;8.13;79.00;102895.78;5125592;28;20123;-69
2023/12/17 08:50:18;;;;;;;14.68;8.68;;;;;;;8.19;78.83;102891.03;5107928;28;20051;-70
2023/12/17 08:52:46;;;;;;;12.88;9.18;;;;;;;8.13;79.09;102890.38;5125604;28;20043;-70
2023/12/17 08:55:13;;;;;;;12.65;8.25;;;;;;;8.34;78.01;102887.69;5125292;28;20046;-70
2023/12/17 08:57:39;;;;;;;14.15;8.38;;;;;;;8.31;78.07;102885.13;5124904;28;20035;-70
2023/12/17 09:00:07;;;;;;;16.67;8.23;;;;;;;8.30;77.88;102886.91;5125594;28;20087;-70
2023/12/17 09:02:34;;;;;;;11.27;8.70;;;;;;;8.33;77.70;102891.34;5121799;28;20051;-71
2023/12/17 09:05:02;;;;;;;10.65;8.18;;;;;;;8.31;77.73;102887.81;5120542;28;20051;-70
2023/12/17 09:07:29;;;;;;;11.35;8.55;;;;;;;8.37;77.52;102882.13;5120644;28;20081;-71
2023/12/17 09:09:55;;;;;;;13.68;9.68;;;;;;;8.29;77.69;102884.28;5122949;28;20107;-70
2023/12/17 09:12:23;;;;;;;11.52;9.00;;;;;;;8.35;77.27;102882.19;5121950;28;20048;-71
2023/12/17 09:14:50;;;;;;;11.45;8.50;;;;;;;8.32;77.44;102900.41;5122336;28;20050;-70
2023/12/17 09:17:16;;;;;;;13.65;8.85;;;;;;;8.41;77.30;102889.19;5123391;28;20075;-71
2023/12/17 09:19:44;;;;;;;20.38;9.85;;;;;;;8.43;76.87;102892.69;5124506;28;20072;-70
2023/12/17 09:22:10;;;;;;;11.10;7.85;;;;;;;8.40;76.94;102887.41;5127946;28;20058;-70
2023/12/17 09:24:37;;;;;;;13.27;9.00;;;;;;;8.46;76.74;102881.72;5130130;28;20054;-70
2023/12/17 09:27:04;;;;;;;10.50;7.85;;;;;;;8.49;76.27;102884.28;5131428;28;20048;-70
2023/12/17 09:29:32;;;;;;;15.98;7.38;;;;;;;8.52;76.24;102881.44;5129867;28;20027;-70
2023/12/17 09:31:59;;;;;;;12.43;7.90;;;;;;;8.50;76.21;102894.19;5112819;28;20051;-71
2023/12/17 09:34:29;;;;;;;10.50;8.10;;;;;;;8.50;76.17;102894.19;5132468;28;20039;-71
2023/12/17 09:36:56;;;;;;;12.85;7.85;;;;;;;8.52;75.92;102903.09;5131877;28;20063;-69
2023/12/17 09:39:22;;;;;;;10.68;7.55;;;;;;;8.51;75.87;102905.88;5131201;28;20039;-71
2023/12/17 09:41:50;;;;;;;10.18;7.78;;;;;;;8.49;75.96;102897.78;5131495;28;20047;-70
2023/12/17 09:44:18;;;;;;;11.10;8.00;;;;;;;8.51;76.10;102890.50;5131563;28;20050;-70
2023/12/17 09:46:45;;;;;;;10.88;7.25;;;;;;;8.50;76.15;102896.00;5131014;28;20043;-71
2023/12/17 09:49:13;;;;;;;12.38;8.18;;;;;;;8.55;75.77;102897.53;5129833;28;20044;-70
2023/12/17 09:51:44;;;;;;;9.40;6.82;;;;;;;8.58;75.61;102899.22;5132352;27;20092;-70
2023/12/17 09:54:11;;;;;;;10.13;6.75;;;;;;;8.54;76.04;102886.78;5123855;28;20048;-70
2023/12/17 09:56:37;;;;;;;10.57;7.03;;;;;;;8.48;76.02;102885.22;5129022;28;20078;-70
2023/12/17 09:59:04;;;;;;;9.32;7.30;;;;;;;8.54;75.82;102873.25;5131038;28;20051;-70
2023/12/17 10:01:30;;;;;;;8.75;7.00;;;;;;;8.56;75.76;102871.34;5129710;28;20047;-70
2023/12/17 10:03:57;;;;;;;12.52;7.28;;;;;;;8.62;75.57;102862.97;5147379;28;20047;-69
2023/12/17 10:06:24;;;;;;;13.55;6.90;;;;;;;8.59;75.50;102872.13;5131367;28;20051;-70
2023/12/17 10:08:51;;;;;;;10.02;7.25;;;;;;;8.48;75.62;102858.19;5130914;28;20482;-71
2023/12/17 10:11:18;;;;;;;7.68;6.65;;;;;;;8.47;75.79;102860.97;5132173;28;20104;-70
2023/12/17 10:13:45;;;;;;;10.68;7.25;;;;;;;8.60;75.64;102856.75;5133545;27;20048;-70
2023/12/17 10:16:11;;;;;;;8.88;6.88;;;;;;;8.65;75.03;102842.06;5132091;28;20043;-69
2023/12/17 10:18:38;;;;;;;9.32;6.50;;;;;;;8.64;75.10;102844.84;5131586;28;20043;-69
2023/12/17 10:21:07;;;;;;;10.65;7.35;;;;;;;8.57;75.54;102846.94;5131546;28;20052;-69
2023/12/17 10:23:50;;;;;;;10.82;7.05;;;;;;;8.53;75.74;102842.63;5131998;28;20039;-71
2023/12/17 10:26:17;;;;;;;9.82;6.85;;;;;;;8.66;75.46;102846.53;5131319;28;20077;-69
2023/12/17 10:28:47;;;;;;;10.73;7.20;;;;;;;8.68;75.34;102838.34;5121567;28;20051;-69
2023/12/17 10:31:18;;;;;;;10.90;7.05;;;;;;;8.74;74.93;102831.75;5131148;28;20044;-70
2023/12/17 10:34:20;;;;;;;9.23;6.88;;;;;;;8.74;74.87;102838.06;5132230;28;20066;-70
2023/12/17 10:36:48;;;;;;;8.25;6.68;;;;;;;8.65;75.18;102825.81;5136922;28;20103;-70
2023/12/17 10:39:17;;;;;;;9.32;6.68;;;;;;;8.75;74.87;102823.56;5136610;28;20104;-70
2023/12/17 10:41:46;;;;;;;10.52;6.35;;;;;;;8.63;75.16;102824.16;5136039;28;20047;-70
2023/12/17 10:44:13;;;;;;;10.52;7.57;;;;;;;8.59;75.57;102812.59;5135435;28;20054;-70
2023/12/17 10:46:42;;;;;;;10.52;6.90;;;;;;;8.72;74.98;102807.50;5135335;28;20034;-70
2023/12/17 10:49:09;;;;;;;9.90;7.35;;;;;;;8.79;74.24;102813.50;5117207;28;20047;-70
2023/12/17 10:51:39;;;;;;;10.95;7.13;;;;;;;8.62;75.13;102806.16;5134388;28;20047;-70
2023/12/17 10:54:06;;;;;;;9.98;6.97;;;;;;;8.71;74.70;102812.03;5135290;28;20062;-70
2023/12/17 10:56:37;;;;;;;9.13;6.82;;;;;;;8.73;74.61;102813.78;5133998;28;20044;-70
2023/12/17 10:59:10;;;;;;;9.35;6.57;;;;;;;8.74;74.54;102804.69;5134692;28;20043;-70
2023/12/17 11:01:41;;;;;;;11.05;7.47;;;;;;;8.68;74.71;102798.66;5134502;28;20048;-71
2023/12/17 11:04:08;;;;;;;9.85;6.45;;;;;;;8.74;74.57;102804.69;5135581;28;20044;-71
2023/12/17 11:06:35;;;;;;;10.23;6.75;;;;;;;8.71;74.49;102795.78;5136401;28;20043;-71
2023/12/17 11:09:04;;;;;;;10.68;6.70;;;;;;;8.75;74.42;102792.94;5135275;28;20051;-70
2023/12/17 11:11:32;;;;;;;11.57;7.88;;;;;;;8.77;74.37;102777.50;5135280;28;20107;-71
2023/12/17 11:13:59;;;;;;;11.77;8.07;;;;;;;8.83;74.32;102777.22;5133467;28;20050;-71
2023/12/17 11:16:28;;;;;;;8.25;6.68;;;;;;;8.74;74.07;102781.22;5134613;28;20709;-70
2023/12/17 11:18:59;;;;;;;9.73;6.95;;;;;;;8.87;73.56;102787.81;5135319;27;20023;-70
2023/12/17 11:21:30;;;;;;;9.32;6.22;;;;;;;8.85;73.87;102780.72;5134795;28;20043;-70